FIN5FS EFHK-EFRO
Flight info
| Callsign | FIN5FS |
|---|---|
| Flight time | 1h 7m |
| Altitude | 38000 |
| Route | TEVRU Y75 NEPIX |
| Aircraft | A319/M-SDE3FGHIRWY/LB1 |
Departure
| Time | 2026-04-20 18:36 |
|---|---|
| Airport | Helsinki Vantaa Airport (EFHK) |
Arrival
| Time | 2026-04-20 19:43 |
|---|---|
| Airport | Rovaniemi Airport (EFRO) |
| Time | Latitude | Longitude | Altitude | Speed | Heading |
|---|---|---|---|---|---|
| 2026-04-20 18:06 | 60.31633 | 24.97241 | 176 ft | 0 kts | 243° |
| 2026-04-20 18:22 | 60.31638 | 24.97261 | 176 ft | 4 kts | 245° |
| 2026-04-20 18:22 | 60.31648 | 24.97312 | 176 ft | 4 kts | 257° |
| 2026-04-20 18:23 | 60.31650 | 24.97362 | 177 ft | 4 kts | 297° |
| 2026-04-20 18:23 | 60.31642 | 24.97382 | 177 ft | 0 kts | 333° |
| 2026-04-20 18:27 | 60.31661 | 24.97362 | 177 ft | 7 kts | 333° |
| 2026-04-20 18:27 | 60.31712 | 24.97310 | 176 ft | 9 kts | 333° |
| 2026-04-20 18:27 | 60.31776 | 24.97245 | 175 ft | 12 kts | 333° |
| 2026-04-20 18:27 | 60.31859 | 24.97158 | 174 ft | 15 kts | 333° |
| 2026-04-20 18:28 | 60.31937 | 24.97189 | 174 ft | 12 kts | 49° |
| 2026-04-20 18:28 | 60.32009 | 24.97151 | 173 ft | 13 kts | 332° |
| 2026-04-20 18:28 | 60.32093 | 24.97067 | 172 ft | 12 kts | 333° |
| 2026-04-20 18:28 | 60.32147 | 24.97013 | 171 ft | 9 kts | 333° |
| 2026-04-20 18:29 | 60.32206 | 24.96951 | 170 ft | 10 kts | 333° |
| 2026-04-20 18:29 | 60.32257 | 24.96897 | 170 ft | 9 kts | 333° |
| 2026-04-20 18:29 | 60.32305 | 24.96808 | 168 ft | 11 kts | 278° |
| 2026-04-20 18:29 | 60.32258 | 24.96683 | 167 ft | 12 kts | 225° |
| 2026-04-20 18:30 | 60.32197 | 24.96547 | 166 ft | 14 kts | 227° |
| 2026-04-20 18:30 | 60.32127 | 24.96395 | 165 ft | 16 kts | 227° |
| 2026-04-20 18:30 | 60.32066 | 24.96261 | 164 ft | 9 kts | 227° |
| 2026-04-20 18:30 | 60.32057 | 24.96242 | 164 ft | 1 kts | 227° |
| 2026-04-20 18:31 | 60.32042 | 24.96207 | 164 ft | 6 kts | 227° |
| 2026-04-20 18:31 | 60.31998 | 24.96112 | 163 ft | 12 kts | 227° |
| 2026-04-20 18:31 | 60.31934 | 24.95971 | 162 ft | 14 kts | 229° |
| 2026-04-20 18:31 | 60.31864 | 24.95815 | 161 ft | 16 kts | 227° |
| 2026-04-20 18:32 | 60.31786 | 24.95642 | 160 ft | 17 kts | 227° |
| 2026-04-20 18:32 | 60.31700 | 24.95454 | 159 ft | 19 kts | 227° |
| 2026-04-20 18:32 | 60.31612 | 24.95261 | 158 ft | 15 kts | 227° |
| 2026-04-20 18:32 | 60.31531 | 24.95083 | 157 ft | 19 kts | 228° |
| 2026-04-20 18:33 | 60.31432 | 24.94864 | 155 ft | 23 kts | 227° |
| 2026-04-20 18:33 | 60.31314 | 24.94603 | 154 ft | 26 kts | 229° |
| 2026-04-20 18:33 | 60.31182 | 24.94314 | 152 ft | 30 kts | 227° |
| 2026-04-20 18:33 | 60.31076 | 24.94079 | 150 ft | 18 kts | 228° |
| 2026-04-20 18:34 | 60.31044 | 24.93844 | 149 ft | 19 kts | 289° |
| 2026-04-20 18:34 | 60.31113 | 24.93700 | 146 ft | 13 kts | 320° |
| 2026-04-20 18:34 | 60.31146 | 24.93680 | 146 ft | 4 kts | 26° |
| 2026-04-20 18:34 | 60.31165 | 24.93714 | 147 ft | 3 kts | 46° |
| 2026-04-20 18:35 | 60.31177 | 24.93739 | 148 ft | 2 kts | 46° |
| 2026-04-20 18:35 | 60.31192 | 24.93771 | 148 ft | 11 kts | 47° |
| 2026-04-20 18:35 | 60.31442 | 24.94320 | 153 ft | 93 kts | 47° |
| 2026-04-20 18:35 | 60.32033 | 24.95624 | 163 ft | 156 kts | 47° |
| 2026-04-20 18:36 | 60.32777 | 24.97274 | 801 ft | 158 kts | 46° |
| 2026-04-20 18:36 | 60.33514 | 24.98908 | 1591 ft | 161 kts | 45° |
| 2026-04-20 18:36 | 60.34320 | 25.00676 | 2071 ft | 182 kts | 46° |
| 2026-04-20 18:36 | 60.35228 | 25.02672 | 2531 ft | 204 kts | 46° |
| 2026-04-20 18:37 | 60.36212 | 25.04843 | 3232 ft | 216 kts | 47° |
| 2026-04-20 18:37 | 60.37241 | 25.07121 | 3850 ft | 222 kts | 47° |
| 2026-04-20 18:37 | 60.38280 | 25.09423 | 3982 ft | 222 kts | 47° |
| 2026-04-20 18:37 | 60.39399 | 25.11570 | 4014 ft | 230 kts | 34° |
| 2026-04-20 18:38 | 60.40926 | 25.12772 | 4013 ft | 243 kts | 10° |
| 2026-04-20 18:38 | 60.42631 | 25.12906 | 4013 ft | 246 kts | 3° |
| 2026-04-20 18:38 | 60.44347 | 25.12956 | 4023 ft | 248 kts | 3° |
| 2026-04-20 18:38 | 60.46087 | 25.13016 | 4889 ft | 251 kts | 3° |
| 2026-04-20 18:39 | 60.47845 | 25.13078 | 5962 ft | 255 kts | 4° |
| 2026-04-20 18:39 | 60.49630 | 25.13078 | 7008 ft | 259 kts | 358° |
| 2026-04-20 18:39 | 60.51420 | 25.12314 | 7999 ft | 267 kts | 344° |
| 2026-04-20 18:39 | 60.53135 | 25.10749 | 8973 ft | 273 kts | 339° |
| 2026-04-20 18:40 | 60.54866 | 25.09075 | 9947 ft | 277 kts | 339° |
| 2026-04-20 18:40 | 60.56635 | 25.07364 | 10653 ft | 291 kts | 339° |
| 2026-04-20 18:40 | 60.58536 | 25.05534 | 11090 ft | 311 kts | 339° |
| 2026-04-20 18:40 | 60.60520 | 25.03613 | 11858 ft | 319 kts | 339° |
| 2026-04-20 18:41 | 60.62531 | 25.01656 | 12712 ft | 323 kts | 339° |
| 2026-04-20 18:41 | 60.64549 | 24.99686 | 13572 ft | 327 kts | 339° |
| 2026-04-20 18:41 | 60.66611 | 24.97667 | 14392 ft | 331 kts | 339° |
| 2026-04-20 18:41 | 60.68701 | 24.95626 | 15140 ft | 335 kts | 340° |
| 2026-04-20 18:42 | 60.70910 | 24.94260 | 15851 ft | 331 kts | 358° |
| 2026-04-20 18:42 | 60.73199 | 24.94169 | 16603 ft | 330 kts | 5° |
| 2026-04-20 18:42 | 60.75508 | 24.94231 | 17362 ft | 333 kts | 5° |
| 2026-04-20 18:42 | 60.77840 | 24.94304 | 18115 ft | 337 kts | 5° |
| 2026-04-20 18:43 | 60.80197 | 24.94380 | 18817 ft | 340 kts | 5° |
| 2026-04-20 18:43 | 60.82577 | 24.94454 | 19475 ft | 343 kts | 5° |
| 2026-04-20 18:43 | 60.84969 | 24.94526 | 20150 ft | 345 kts | 5° |
| 2026-04-20 18:43 | 60.87377 | 24.94594 | 20819 ft | 348 kts | 5° |
| 2026-04-20 18:44 | 60.89804 | 24.94659 | 21489 ft | 350 kts | 5° |
| 2026-04-20 18:44 | 60.92247 | 24.94722 | 22157 ft | 353 kts | 6° |
| 2026-04-20 18:44 | 60.94709 | 24.94789 | 22827 ft | 355 kts | 6° |
| 2026-04-20 18:44 | 60.97188 | 24.94856 | 23490 ft | 358 kts | 6° |
| 2026-04-20 18:45 | 60.99686 | 24.94930 | 24075 ft | 361 kts | 6° |
| 2026-04-20 18:45 | 61.01351 | 24.94984 | 24424 ft | 363 kts | 6° |
| 2026-04-20 18:45 | 61.03887 | 24.95067 | 24935 ft | 366 kts | 6° |
| 2026-04-20 18:45 | 61.06442 | 24.95143 | 25397 ft | 369 kts | 6° |
| 2026-04-20 18:46 | 61.09020 | 24.95220 | 25861 ft | 373 kts | 6° |
| 2026-04-20 18:46 | 61.11625 | 24.95297 | 26345 ft | 376 kts | 6° |
| 2026-04-20 18:46 | 61.14249 | 24.95374 | 26813 ft | 378 kts | 5° |
| 2026-04-20 18:46 | 61.16892 | 24.95449 | 27306 ft | 381 kts | 5° |
| 2026-04-20 18:47 | 61.19552 | 24.95521 | 27786 ft | 384 kts | 5° |
| 2026-04-20 18:47 | 61.22170 | 24.95592 | 28226 ft | 387 kts | 5° |
| 2026-04-20 18:47 | 61.24876 | 24.95665 | 28682 ft | 390 kts | 5° |
| 2026-04-20 18:47 | 61.27597 | 24.95735 | 29132 ft | 393 kts | 5° |
| 2026-04-20 18:48 | 61.30336 | 24.95808 | 29579 ft | 396 kts | 5° |
| 2026-04-20 18:48 | 61.33100 | 24.95891 | 30019 ft | 399 kts | 5° |
| 2026-04-20 18:48 | 61.35884 | 24.95982 | 30444 ft | 402 kts | 5° |
| 2026-04-20 18:48 | 61.38652 | 24.96073 | 30786 ft | 404 kts | 5° |
| 2026-04-20 18:49 | 61.41475 | 24.96163 | 31146 ft | 407 kts | 5° |
| 2026-04-20 18:49 | 61.44316 | 24.96249 | 31477 ft | 410 kts | 5° |
| 2026-04-20 18:49 | 61.47177 | 24.96332 | 31813 ft | 412 kts | 5° |
| 2026-04-20 18:49 | 61.50050 | 24.96412 | 32206 ft | 413 kts | 4° |
| 2026-04-20 18:50 | 61.52923 | 24.96487 | 32688 ft | 412 kts | 4° |
| 2026-04-20 18:50 | 61.55787 | 24.96562 | 33164 ft | 411 kts | 4° |
| 2026-04-20 18:50 | 61.58647 | 24.96644 | 33633 ft | 411 kts | 4° |
| 2026-04-20 18:50 | 61.61506 | 24.96731 | 34112 ft | 410 kts | 4° |
| 2026-04-20 18:51 | 61.64359 | 24.96820 | 34541 ft | 410 kts | 4° |
| 2026-04-20 18:51 | 61.67209 | 24.96905 | 34914 ft | 410 kts | 4° |
| 2026-04-20 18:51 | 61.70060 | 24.96987 | 35265 ft | 410 kts | 4° |
| 2026-04-20 18:51 | 61.72922 | 24.97067 | 35585 ft | 411 kts | 4° |
| 2026-04-20 18:52 | 61.75780 | 24.97152 | 35909 ft | 411 kts | 4° |
| 2026-04-20 18:52 | 61.78646 | 24.97241 | 36191 ft | 412 kts | 3° |
| 2026-04-20 18:52 | 61.81521 | 24.97329 | 36486 ft | 413 kts | 3° |
| 2026-04-20 18:52 | 61.84359 | 24.97416 | 36782 ft | 413 kts | 3° |
| 2026-04-20 18:53 | 61.87234 | 24.97507 | 37067 ft | 414 kts | 3° |
| 2026-04-20 18:53 | 61.90114 | 24.97596 | 37350 ft | 414 kts | 3° |
| 2026-04-20 18:53 | 61.92997 | 24.97684 | 37625 ft | 414 kts | 3° |
| 2026-04-20 18:53 | 61.95886 | 24.97770 | 37898 ft | 415 kts | 3° |
| 2026-04-20 18:54 | 61.98770 | 24.97860 | 38165 ft | 415 kts | 3° |
| 2026-04-20 18:54 | 62.01664 | 24.97952 | 38318 ft | 416 kts | 3° |
| 2026-04-20 18:54 | 62.07442 | 24.98121 | 38353 ft | 414 kts | 3° |
| 2026-04-20 18:55 | 62.13203 | 24.98287 | 38352 ft | 413 kts | 2° |
| 2026-04-20 18:55 | 62.18916 | 24.98469 | 38342 ft | 413 kts | 2° |
| 2026-04-20 18:56 | 62.24664 | 24.98645 | 38353 ft | 413 kts | 2° |
| 2026-04-20 18:56 | 62.30413 | 24.98825 | 38350 ft | 413 kts | 2° |
| 2026-04-20 18:57 | 62.36162 | 24.99013 | 38359 ft | 413 kts | 2° |
| 2026-04-20 18:57 | 62.41911 | 24.99189 | 38359 ft | 413 kts | 2° |
| 2026-04-20 18:58 | 62.47661 | 24.99368 | 38355 ft | 413 kts | 2° |
| 2026-04-20 18:58 | 62.53412 | 24.99541 | 38342 ft | 414 kts | 2° |
| 2026-04-20 18:59 | 62.59136 | 24.99728 | 38355 ft | 414 kts | 2° |
| 2026-04-20 18:59 | 62.64894 | 24.99912 | 38372 ft | 414 kts | 2° |
| 2026-04-20 19:00 | 62.70650 | 25.00093 | 38373 ft | 414 kts | 2° |
| 2026-04-20 19:00 | 62.76411 | 25.00293 | 38372 ft | 413 kts | 2° |
| 2026-04-20 19:01 | 62.82157 | 25.00496 | 38375 ft | 413 kts | 2° |
| 2026-04-20 19:01 | 62.87904 | 25.00672 | 38373 ft | 413 kts | 2° |
| 2026-04-20 19:02 | 62.93642 | 25.00846 | 38377 ft | 412 kts | 2° |
| 2026-04-20 19:02 | 62.99384 | 25.01038 | 38375 ft | 412 kts | 2° |
| 2026-04-20 19:03 | 63.05127 | 25.01222 | 38377 ft | 412 kts | 2° |
| 2026-04-20 19:03 | 63.10862 | 25.01399 | 38376 ft | 412 kts | 2° |
| 2026-04-20 19:04 | 63.16594 | 25.01600 | 38375 ft | 412 kts | 2° |
| 2026-04-20 19:04 | 63.22277 | 25.01790 | 38376 ft | 411 kts | 2° |
| 2026-04-20 19:05 | 63.28002 | 25.01975 | 38367 ft | 411 kts | 2° |
| 2026-04-20 19:05 | 63.33728 | 25.02165 | 38371 ft | 412 kts | 2° |
| 2026-04-20 19:06 | 63.39455 | 25.02348 | 38374 ft | 412 kts | 2° |
| 2026-04-20 19:06 | 63.45188 | 25.02542 | 38378 ft | 411 kts | 2° |
| 2026-04-20 19:07 | 63.50917 | 25.02739 | 38384 ft | 411 kts | 1° |
| 2026-04-20 19:07 | 63.56645 | 25.02922 | 38389 ft | 412 kts | 1° |
| 2026-04-20 19:08 | 63.65245 | 25.03222 | 38393 ft | 412 kts | 2° |
| 2026-04-20 19:09 | 63.70976 | 25.03419 | 38397 ft | 412 kts | 2° |
| 2026-04-20 19:09 | 63.76659 | 25.03619 | 38395 ft | 411 kts | 1° |
| 2026-04-20 19:10 | 63.82381 | 25.03811 | 38395 ft | 411 kts | 1° |
| 2026-04-20 19:10 | 63.88100 | 25.04012 | 38393 ft | 411 kts | 1° |
| 2026-04-20 19:11 | 63.93820 | 25.04213 | 38396 ft | 411 kts | 1° |
| 2026-04-20 19:11 | 63.99535 | 25.04422 | 38372 ft | 411 kts | 1° |
| 2026-04-20 19:12 | 64.05257 | 25.04625 | 38370 ft | 411 kts | 1° |
| 2026-04-20 19:12 | 64.10982 | 25.04824 | 38383 ft | 412 kts | 1° |
| 2026-04-20 19:13 | 64.16677 | 25.05015 | 38391 ft | 411 kts | 1° |
| 2026-04-20 19:13 | 64.22442 | 25.05215 | 38392 ft | 411 kts | 1° |
| 2026-04-20 19:14 | 64.28127 | 25.05430 | 38386 ft | 411 kts | 1° |
| 2026-04-20 19:14 | 64.33846 | 25.05632 | 38057 ft | 411 kts | 1° |
| 2026-04-20 19:14 | 64.36699 | 25.05733 | 37783 ft | 410 kts | 1° |
| 2026-04-20 19:15 | 64.39547 | 25.05840 | 37505 ft | 409 kts | 1° |
| 2026-04-20 19:15 | 64.42394 | 25.06160 | 37235 ft | 409 kts | 4° |
| 2026-04-20 19:15 | 64.45222 | 25.06741 | 36981 ft | 408 kts | 5° |
| 2026-04-20 19:15 | 64.48047 | 25.07472 | 36719 ft | 408 kts | 6° |
| 2026-04-20 19:16 | 64.50867 | 25.08246 | 36455 ft | 408 kts | 6° |
| 2026-04-20 19:16 | 64.53682 | 25.09007 | 36200 ft | 407 kts | 5° |
| 2026-04-20 19:16 | 64.56493 | 25.09728 | 35948 ft | 405 kts | 5° |
| 2026-04-20 19:16 | 64.59286 | 25.10407 | 35694 ft | 403 kts | 4° |
| 2026-04-20 19:17 | 64.62063 | 25.11055 | 35446 ft | 400 kts | 4° |
| 2026-04-20 19:17 | 64.64830 | 25.11690 | 35195 ft | 398 kts | 4° |
| 2026-04-20 19:17 | 64.67577 | 25.12317 | 34957 ft | 395 kts | 4° |
| 2026-04-20 19:17 | 64.70305 | 25.12941 | 34709 ft | 393 kts | 4° |
| 2026-04-20 19:18 | 64.73019 | 25.13565 | 34473 ft | 390 kts | 4° |
| 2026-04-20 19:18 | 64.75713 | 25.14191 | 34206 ft | 388 kts | 4° |
| 2026-04-20 19:18 | 64.78391 | 25.14824 | 33945 ft | 385 kts | 3° |
| 2026-04-20 19:18 | 64.81046 | 25.15462 | 33659 ft | 382 kts | 3° |
| 2026-04-20 19:19 | 64.83690 | 25.16092 | 33364 ft | 381 kts | 2° |
| 2026-04-20 19:19 | 64.86306 | 25.16716 | 33018 ft | 375 kts | 2° |
| 2026-04-20 19:19 | 64.88888 | 25.17335 | 32575 ft | 371 kts | 2° |
| 2026-04-20 19:19 | 64.91440 | 25.17942 | 32143 ft | 367 kts | 2° |
| 2026-04-20 19:20 | 64.93968 | 25.18537 | 31708 ft | 363 kts | 2° |
| 2026-04-20 19:20 | 64.96438 | 25.19115 | 31304 ft | 359 kts | 2° |
| 2026-04-20 19:20 | 64.98914 | 25.19698 | 30888 ft | 356 kts | 2° |
| 2026-04-20 19:20 | 65.01364 | 25.20283 | 30501 ft | 352 kts | 2° |
| 2026-04-20 19:21 | 65.03793 | 25.20866 | 30056 ft | 349 kts | 2° |
| 2026-04-20 19:21 | 65.06199 | 25.21446 | 29688 ft | 345 kts | 2° |
| 2026-04-20 19:21 | 65.08572 | 25.22021 | 29305 ft | 340 kts | 2° |
| 2026-04-20 19:21 | 65.10913 | 25.22590 | 28948 ft | 336 kts | 1° |
| 2026-04-20 19:22 | 65.13222 | 25.23149 | 28576 ft | 332 kts | 1° |
| 2026-04-20 19:22 | 65.15506 | 25.23705 | 28222 ft | 327 kts | 1° |
| 2026-04-20 19:22 | 65.17754 | 25.24254 | 27866 ft | 322 kts | 1° |
| 2026-04-20 19:22 | 65.19967 | 25.24787 | 27502 ft | 317 kts | 1° |
| 2026-04-20 19:23 | 65.22146 | 25.25310 | 27155 ft | 312 kts | 1° |
| 2026-04-20 19:23 | 65.24294 | 25.25834 | 26793 ft | 308 kts | 1° |
| 2026-04-20 19:23 | 65.26416 | 25.26356 | 26445 ft | 306 kts | 1° |
| 2026-04-20 19:23 | 65.28530 | 25.26877 | 26087 ft | 304 kts | 1° |
| 2026-04-20 19:24 | 65.30598 | 25.27383 | 25721 ft | 302 kts | 1° |
| 2026-04-20 19:24 | 65.32679 | 25.27885 | 25350 ft | 300 kts | 1° |
| 2026-04-20 19:24 | 65.34753 | 25.28385 | 24988 ft | 298 kts | 1° |
| 2026-04-20 19:24 | 65.36812 | 25.28885 | 24612 ft | 296 kts | 1° |
| 2026-04-20 19:25 | 65.38857 | 25.29388 | 24240 ft | 295 kts | 1° |
| 2026-04-20 19:25 | 65.40893 | 25.29895 | 23854 ft | 293 kts | 1° |
| 2026-04-20 19:25 | 65.42913 | 25.30398 | 23453 ft | 291 kts | 2° |
| 2026-04-20 19:25 | 65.44923 | 25.30897 | 23085 ft | 290 kts | 2° |
| 2026-04-20 19:26 | 65.46921 | 25.31393 | 22721 ft | 288 kts | 2° |
| 2026-04-20 19:26 | 65.48914 | 25.31894 | 22360 ft | 287 kts | 2° |
| 2026-04-20 19:26 | 65.50892 | 25.32391 | 22007 ft | 285 kts | 2° |
| 2026-04-20 19:26 | 65.52862 | 25.32883 | 21661 ft | 284 kts | 2° |
| 2026-04-20 19:27 | 65.54827 | 25.33374 | 21313 ft | 283 kts | 2° |
| 2026-04-20 19:27 | 65.56780 | 25.33862 | 20958 ft | 282 kts | 2° |
| 2026-04-20 19:27 | 65.58730 | 25.34350 | 20621 ft | 281 kts | 2° |
| 2026-04-20 19:27 | 65.60643 | 25.34830 | 20285 ft | 280 kts | 2° |
| 2026-04-20 19:28 | 65.62579 | 25.35313 | 19942 ft | 279 kts | 2° |
| 2026-04-20 19:28 | 65.64504 | 25.35795 | 19604 ft | 278 kts | 2° |
| 2026-04-20 19:28 | 65.66427 | 25.36280 | 19267 ft | 277 kts | 2° |
| 2026-04-20 19:28 | 65.68342 | 25.36763 | 18935 ft | 276 kts | 3° |
| 2026-04-20 19:29 | 65.70250 | 25.37245 | 18594 ft | 276 kts | 3° |
| 2026-04-20 19:29 | 65.72153 | 25.37729 | 18229 ft | 274 kts | 3° |
| 2026-04-20 19:29 | 65.74047 | 25.38210 | 17901 ft | 273 kts | 3° |
| 2026-04-20 19:29 | 65.75931 | 25.38688 | 17578 ft | 271 kts | 3° |
| 2026-04-20 19:30 | 65.77806 | 25.39164 | 17258 ft | 270 kts | 3° |
| 2026-04-20 19:30 | 65.79673 | 25.39636 | 16931 ft | 269 kts | 3° |
| 2026-04-20 19:30 | 65.81535 | 25.40104 | 16622 ft | 268 kts | 3° |
| 2026-04-20 19:30 | 65.83385 | 25.40574 | 16311 ft | 267 kts | 3° |
| 2026-04-20 19:31 | 65.85232 | 25.41043 | 15994 ft | 266 kts | 3° |
| 2026-04-20 19:31 | 65.87071 | 25.41512 | 15690 ft | 265 kts | 3° |
| 2026-04-20 19:31 | 65.88906 | 25.41983 | 15382 ft | 265 kts | 3° |
| 2026-04-20 19:31 | 65.90735 | 25.42454 | 15085 ft | 264 kts | 3° |
| 2026-04-20 19:32 | 65.91942 | 25.42766 | 14880 ft | 263 kts | 3° |
| 2026-04-20 19:32 | 65.94357 | 25.43385 | 14478 ft | 263 kts | 3° |
| 2026-04-20 19:32 | 65.96177 | 25.43850 | 14166 ft | 263 kts | 3° |
| 2026-04-20 19:32 | 65.97992 | 25.44317 | 13832 ft | 262 kts | 3° |
| 2026-04-20 19:33 | 65.99799 | 25.44787 | 13508 ft | 261 kts | 3° |
| 2026-04-20 19:33 | 66.01598 | 25.45253 | 13206 ft | 259 kts | 4° |
| 2026-04-20 19:33 | 66.02807 | 25.45569 | 13000 ft | 258 kts | 4° |
| 2026-04-20 19:33 | 66.04584 | 25.46033 | 12687 ft | 256 kts | 4° |
| 2026-04-20 19:34 | 66.06354 | 25.46494 | 12376 ft | 255 kts | 4° |
| 2026-04-20 19:34 | 66.08092 | 25.46946 | 12058 ft | 254 kts | 4° |
| 2026-04-20 19:34 | 66.09849 | 25.47401 | 11762 ft | 253 kts | 4° |
| 2026-04-20 19:34 | 66.11599 | 25.47853 | 11435 ft | 252 kts | 4° |
| 2026-04-20 19:35 | 66.13342 | 25.48308 | 11113 ft | 251 kts | 4° |
| 2026-04-20 19:35 | 66.15076 | 25.48763 | 10791 ft | 250 kts | 5° |
| 2026-04-20 19:35 | 66.16808 | 25.49217 | 10465 ft | 249 kts | 5° |
| 2026-04-20 19:35 | 66.18526 | 25.49668 | 10133 ft | 248 kts | 5° |
| 2026-04-20 19:36 | 66.20237 | 25.50122 | 9784 ft | 246 kts | 5° |
| 2026-04-20 19:36 | 66.21935 | 25.50577 | 9446 ft | 244 kts | 5° |
| 2026-04-20 19:36 | 66.23615 | 25.51024 | 9108 ft | 241 kts | 5° |
| 2026-04-20 19:36 | 66.25275 | 25.51462 | 8778 ft | 239 kts | 5° |
| 2026-04-20 19:37 | 66.26919 | 25.51894 | 8440 ft | 237 kts | 6° |
| 2026-04-20 19:37 | 66.28549 | 25.52320 | 8101 ft | 234 kts | 6° |
| 2026-04-20 19:37 | 66.30162 | 25.52738 | 7770 ft | 232 kts | 6° |
| 2026-04-20 19:37 | 66.31760 | 25.53157 | 7429 ft | 230 kts | 6° |
| 2026-04-20 19:38 | 66.33348 | 25.53578 | 7085 ft | 229 kts | 6° |
| 2026-04-20 19:38 | 66.34904 | 25.53995 | 6741 ft | 227 kts | 6° |
| 2026-04-20 19:38 | 66.36471 | 25.54414 | 6377 ft | 226 kts | 6° |
| 2026-04-20 19:38 | 66.38025 | 25.54830 | 6031 ft | 224 kts | 6° |
| 2026-04-20 19:39 | 66.39572 | 25.55243 | 5673 ft | 223 kts | 6° |
| 2026-04-20 19:39 | 66.41119 | 25.55655 | 5305 ft | 224 kts | 7° |
| 2026-04-20 19:39 | 66.42617 | 25.56793 | 4746 ft | 231 kts | 33° |
| 2026-04-20 19:39 | 66.43880 | 25.59225 | 4415 ft | 228 kts | 36° |
| 2026-04-20 19:40 | 66.45141 | 25.61618 | 4054 ft | 224 kts | 36° |
| 2026-04-20 19:40 | 66.46360 | 25.63906 | 3519 ft | 213 kts | 36° |
| 2026-04-20 19:40 | 66.47501 | 25.66048 | 3128 ft | 198 kts | 35° |
| 2026-04-20 19:40 | 66.48564 | 25.68049 | 2795 ft | 185 kts | 35° |
| 2026-04-20 19:41 | 66.49564 | 25.69933 | 2488 ft | 173 kts | 35° |
| 2026-04-20 19:41 | 66.50492 | 25.71689 | 2201 ft | 161 kts | 34° |
| 2026-04-20 19:41 | 66.51333 | 25.73290 | 1877 ft | 145 kts | 35° |
| 2026-04-20 19:41 | 66.52107 | 25.74761 | 1569 ft | 134 kts | 34° |
| 2026-04-20 19:42 | 66.52832 | 25.76119 | 1320 ft | 128 kts | 34° |
| 2026-04-20 19:42 | 66.53534 | 25.77455 | 1113 ft | 126 kts | 34° |
| 2026-04-20 19:42 | 66.54233 | 25.78774 | 959 ft | 125 kts | 34° |
| 2026-04-20 19:42 | 66.54932 | 25.80091 | 815 ft | 126 kts | 36° |
| 2026-04-20 19:43 | 66.55392 | 25.80962 | 710 ft | 125 kts | 35° |
| 2026-04-20 19:43 | 66.56245 | 25.82585 | 647 ft | 91 kts | 37° |
| 2026-04-20 19:43 | 66.56609 | 25.83277 | 641 ft | 34 kts | 37° |
| 2026-04-20 19:43 | 66.56599 | 25.83511 | 642 ft | 11 kts | 129° |
| 2026-04-20 19:44 | 66.56571 | 25.83604 | 642 ft | 0 kts | 125° |
| 2026-04-20 19:45 | 66.56562 | 25.83633 | 641 ft | 4 kts | 129° |
| 2026-04-20 19:45 | 66.56526 | 25.83655 | 642 ft | 7 kts | 197° |
| 2026-04-20 19:45 | 66.56465 | 25.83546 | 642 ft | 17 kts | 219° |
| 2026-04-20 19:46 | 66.56361 | 25.83349 | 643 ft | 19 kts | 215° |
| 2026-04-20 19:46 | 66.56266 | 25.83168 | 645 ft | 17 kts | 217° |
| 2026-04-20 19:46 | 66.56192 | 25.83029 | 645 ft | 12 kts | 217° |
| 2026-04-20 19:46 | 66.56125 | 25.82900 | 646 ft | 12 kts | 218° |
| 2026-04-20 19:47 | 66.56056 | 25.82762 | 647 ft | 13 kts | 218° |
| 2026-04-20 19:47 | 66.55984 | 25.82622 | 649 ft | 13 kts | 217° |
| 2026-04-20 19:47 | 66.55911 | 25.82668 | 648 ft | 9 kts | 155° |
| 2026-04-20 19:47 | 66.55878 | 25.82707 | 648 ft | 2 kts | 154° |
| 2026-04-20 19:48 | 66.55872 | 25.82715 | 648 ft | 0 kts | 154° |